sensor_id;sensor_type;location;lat;lon;timestamp;P1;durP1;ratioP1;P2;durP2;ratioP2
65130;SDS011;51709;54.912;8.316;2023-11-21T00:01:18;12.07;;;7.50;;
65130;SDS011;51709;54.912;8.316;2023-11-21T00:06:38;12.63;;;8.77;;
65130;SDS011;51709;54.912;8.316;2023-11-21T00:12:01;12.75;;;8.73;;
65130;SDS011;51709;54.912;8.316;2023-11-21T00:17:22;12.77;;;8.52;;
65130;SDS011;51709;54.912;8.316;2023-11-21T00:22:43;16.25;;;8.48;;
65130;SDS011;51709;54.912;8.316;2023-11-21T00:28:04;15.70;;;8.52;;
65130;SDS011;51709;54.912;8.316;2023-11-21T00:33:26;17.00;;;10.05;;
65130;SDS011;51709;54.912;8.316;2023-11-21T00:38:47;15.90;;;8.90;;
65130;SDS011;51709;54.912;8.316;2023-11-21T00:44:08;18.33;;;9.63;;
65130;SDS011;51709;54.912;8.316;2023-11-21T00:49:29;15.52;;;9.43;;
65130;SDS011;51709;54.912;8.316;2023-11-21T00:54:49;18.13;;;10.27;;
65130;SDS011;51709;54.912;8.316;2023-11-21T01:00:10;21.40;;;9.55;;
65130;SDS011;51709;54.912;8.316;2023-11-21T01:05:35;16.58;;;9.50;;
65130;SDS011;51709;54.912;8.316;2023-11-21T01:10:55;13.25;;;8.05;;
65130;SDS011;51709;54.912;8.316;2023-11-21T01:16:16;11.63;;;8.00;;
65130;SDS011;51709;54.912;8.316;2023-11-21T01:21:36;16.23;;;8.40;;
65130;SDS011;51709;54.912;8.316;2023-11-21T01:26:57;18.88;;;9.27;;
65130;SDS011;51709;54.912;8.316;2023-11-21T01:32:36;14.95;;;9.52;;
65130;SDS011;51709;54.912;8.316;2023-11-21T01:38:16;11.25;;;8.50;;
65130;SDS011;51709;54.912;8.316;2023-11-21T01:43:56;16.52;;;10.02;;
65130;SDS011;51709;54.912;8.316;2023-11-21T01:49:36;18.83;;;9.80;;
65130;SDS011;51709;54.912;8.316;2023-11-21T01:55:17;17.17;;;9.85;;
65130;SDS011;51709;54.912;8.316;2023-11-21T02:01:06;17.48;;;10.23;;
65130;SDS011;51709;54.912;8.316;2023-11-21T02:06:45;16.50;;;9.18;;
65130;SDS011;51709;54.912;8.316;2023-11-21T02:12:25;21.83;;;10.98;;
65130;SDS011;51709;54.912;8.316;2023-11-21T02:18:05;21.88;;;11.10;;
65130;SDS011;51709;54.912;8.316;2023-11-21T02:23:45;23.13;;;11.35;;
65130;SDS011;51709;54.912;8.316;2023-11-21T02:29:07;18.95;;;10.77;;
65130;SDS011;51709;54.912;8.316;2023-11-21T02:34:31;18.52;;;11.07;;
65130;SDS011;51709;54.912;8.316;2023-11-21T02:39:52;19.02;;;11.93;;
65130;SDS011;51709;54.912;8.316;2023-11-21T02:45:13;19.20;;;11.52;;
65130;SDS011;51709;54.912;8.316;2023-11-21T02:50:37;21.00;;;9.80;;
65130;SDS011;51709;54.912;8.316;2023-11-21T02:55:58;19.17;;;10.77;;
65130;SDS011;51709;54.912;8.316;2023-11-21T03:01:19;17.48;;;9.30;;
65130;SDS011;51709;54.912;8.316;2023-11-21T03:06:40;18.27;;;10.55;;
65130;SDS011;51709;54.912;8.316;2023-11-21T03:12:01;17.10;;;9.35;;
65130;SDS011;51709;54.912;8.316;2023-11-21T03:17:22;19.73;;;9.57;;
65130;SDS011;51709;54.912;8.316;2023-11-21T03:22:42;15.02;;;8.68;;
65130;SDS011;51709;54.912;8.316;2023-11-21T03:28:03;22.30;;;10.15;;
65130;SDS011;51709;54.912;8.316;2023-11-21T03:33:24;14.63;;;8.95;;
65130;SDS011;51709;54.912;8.316;2023-11-21T03:38:45;16.35;;;8.85;;
65130;SDS011;51709;54.912;8.316;2023-11-21T03:44:06;16.13;;;8.27;;
65130;SDS011;51709;54.912;8.316;2023-11-21T03:49:26;14.43;;;7.45;;
65130;SDS011;51709;54.912;8.316;2023-11-21T03:54:47;21.73;;;9.38;;
65130;SDS011;51709;54.912;8.316;2023-11-21T04:00:08;18.77;;;8.85;;
65130;SDS011;51709;54.912;8.316;2023-11-21T04:05:33;16.88;;;8.80;;
65130;SDS011;51709;54.912;8.316;2023-11-21T04:10:53;18.00;;;8.30;;
65130;SDS011;51709;54.912;8.316;2023-11-21T04:16:15;14.23;;;8.13;;
65130;SDS011;51709;54.912;8.316;2023-11-21T04:21:36;17.35;;;8.38;;
65130;SDS011;51709;54.912;8.316;2023-11-21T04:26:58;13.52;;;8.30;;
65130;SDS011;51709;54.912;8.316;2023-11-21T04:32:18;11.25;;;7.93;;
65130;SDS011;51709;54.912;8.316;2023-11-21T04:37:39;19.33;;;7.70;;
65130;SDS011;51709;54.912;8.316;2023-11-21T04:43:00;15.60;;;8.23;;
65130;SDS011;51709;54.912;8.316;2023-11-21T04:48:22;14.60;;;7.72;;
65130;SDS011;51709;54.912;8.316;2023-11-21T04:53:42;13.60;;;8.23;;
65130;SDS011;51709;54.912;8.316;2023-11-21T04:59:03;16.52;;;8.35;;
65130;SDS011;51709;54.912;8.316;2023-11-21T05:04:25;13.77;;;8.13;;
65130;SDS011;51709;54.912;8.316;2023-11-21T05:09:45;16.35;;;7.90;;
65130;SDS011;51709;54.912;8.316;2023-11-21T05:15:07;12.25;;;7.72;;
65130;SDS011;51709;54.912;8.316;2023-11-21T05:20:31;11.48;;;7.03;;
65130;SDS011;51709;54.912;8.316;2023-11-21T05:25:51;10.98;;;6.30;;
65130;SDS011;51709;54.912;8.316;2023-11-21T05:31:12;8.93;;;6.28;;
65130;SDS011;51709;54.912;8.316;2023-11-21T05:36:36;9.40;;;6.25;;
65130;SDS011;51709;54.912;8.316;2023-11-21T05:41:57;14.95;;;6.50;;
65130;SDS011;51709;54.912;8.316;2023-11-21T05:47:18;14.50;;;7.10;;
65130;SDS011;51709;54.912;8.316;2023-11-21T05:52:39;11.10;;;6.22;;
65130;SDS011;51709;54.912;8.316;2023-11-21T05:58:00;11.38;;;6.68;;
65130;SDS011;51709;54.912;8.316;2023-11-21T06:03:21;11.32;;;6.63;;
65130;SDS011;51709;54.912;8.316;2023-11-21T06:08:43;13.45;;;6.95;;
65130;SDS011;51709;54.912;8.316;2023-11-21T06:14:04;10.65;;;5.85;;
65130;SDS011;51709;54.912;8.316;2023-11-21T06:19:28;11.17;;;6.43;;
65130;SDS011;51709;54.912;8.316;2023-11-21T06:24:48;7.85;;;5.75;;
65130;SDS011;51709;54.912;8.316;2023-11-21T06:30:09;11.40;;;6.40;;
65130;SDS011;51709;54.912;8.316;2023-11-21T06:35:31;12.80;;;6.60;;
65130;SDS011;51709;54.912;8.316;2023-11-21T06:40:55;11.02;;;6.05;;
65130;SDS011;51709;54.912;8.316;2023-11-21T06:46:16;12.18;;;6.18;;
65130;SDS011;51709;54.912;8.316;2023-11-21T06:51:37;11.73;;;6.45;;
65130;SDS011;51709;54.912;8.316;2023-11-21T06:56:58;10.60;;;5.07;;
65130;SDS011;51709;54.912;8.316;2023-11-21T07:02:18;13.43;;;6.85;;
65130;SDS011;51709;54.912;8.316;2023-11-21T07:07:39;12.80;;;5.95;;
65130;SDS011;51709;54.912;8.316;2023-11-21T07:12:59;9.82;;;5.25;;
65130;SDS011;51709;54.912;8.316;2023-11-21T07:18:21;16.55;;;5.85;;
65130;SDS011;51709;54.912;8.316;2023-11-21T07:23:41;12.95;;;6.03;;
65130;SDS011;51709;54.912;8.316;2023-11-21T07:29:02;10.88;;;5.38;;
65130;SDS011;51709;54.912;8.316;2023-11-21T07:34:23;9.23;;;5.78;;
65130;SDS011;51709;54.912;8.316;2023-11-21T07:39:44;8.70;;;5.55;;
65130;SDS011;51709;54.912;8.316;2023-11-21T07:45:05;8.63;;;5.88;;
65130;SDS011;51709;54.912;8.316;2023-11-21T07:50:27;8.07;;;5.15;;
65130;SDS011;51709;54.912;8.316;2023-11-21T07:55:47;10.55;;;6.05;;
65130;SDS011;51709;54.912;8.316;2023-11-21T08:01:08;10.10;;;5.88;;
65130;SDS011;51709;54.912;8.316;2023-11-21T08:06:30;7.40;;;4.80;;
65130;SDS011;51709;54.912;8.316;2023-11-21T08:11:51;9.52;;;5.97;;
65130;SDS011;51709;54.912;8.316;2023-11-21T08:17:13;16.70;;;6.35;;
65130;SDS011;51709;54.912;8.316;2023-11-21T08:22:36;11.20;;;5.43;;
65130;SDS011;51709;54.912;8.316;2023-11-21T08:27:57;8.48;;;5.63;;
65130;SDS011;51709;54.912;8.316;2023-11-21T08:33:18;9.68;;;5.72;;
65130;SDS011;51709;54.912;8.316;2023-11-21T08:38:38;7.28;;;4.88;;
65130;SDS011;51709;54.912;8.316;2023-11-21T08:43:59;7.45;;;5.00;;
65130;SDS011;51709;54.912;8.316;2023-11-21T08:49:19;10.98;;;4.90;;
65130;SDS011;51709;54.912;8.316;2023-11-21T08:54:40;11.02;;;5.30;;
65130;SDS011;51709;54.912;8.316;2023-11-21T09:00:05;10.65;;;5.25;;
65130;SDS011;51709;54.912;8.316;2023-11-21T09:05:32;7.63;;;5.25;;
65130;SDS011;51709;54.912;8.316;2023-11-21T09:10:53;6.63;;;5.03;;
65130;SDS011;51709;54.912;8.316;2023-11-21T09:16:14;6.22;;;4.55;;
65130;SDS011;51709;54.912;8.316;2023-11-21T09:21:36;11.32;;;5.05;;
65130;SDS011;51709;54.912;8.316;2023-11-21T09:26:56;8.90;;;5.57;;
65130;SDS011;51709;54.912;8.316;2023-11-21T09:32:17;9.82;;;5.30;;
65130;SDS011;51709;54.912;8.316;2023-11-21T09:37:39;6.55;;;4.65;;
65130;SDS011;51709;54.912;8.316;2023-11-21T09:42:59;6.95;;;4.40;;
65130;SDS011;51709;54.912;8.316;2023-11-21T09:48:28;7.25;;;4.25;;
65130;SDS011;51709;54.912;8.316;2023-11-21T09:53:51;5.47;;;4.40;;
65130;SDS011;51709;54.912;8.316;2023-11-21T09:59:15;9.07;;;4.97;;
65130;SDS011;51709;54.912;8.316;2023-11-21T10:04:36;5.32;;;4.53;;
65130;SDS011;51709;54.912;8.316;2023-11-21T10:09:57;6.80;;;4.47;;
65130;SDS011;51709;54.912;8.316;2023-11-21T10:15:21;5.10;;;3.75;;
65130;SDS011;51709;54.912;8.316;2023-11-21T10:20:42;9.75;;;5.40;;
65130;SDS011;51709;54.912;8.316;2023-11-21T10:26:03;8.27;;;4.32;;
65130;SDS011;51709;54.912;8.316;2023-11-21T10:31:39;7.38;;;4.60;;
65130;SDS011;51709;54.912;8.316;2023-11-21T10:37:07;5.63;;;4.60;;
65130;SDS011;51709;54.912;8.316;2023-11-21T10:42:32;10.10;;;4.82;;
65130;SDS011;51709;54.912;8.316;2023-11-21T10:47:52;10.18;;;5.18;;
65130;SDS011;51709;54.912;8.316;2023-11-21T10:53:13;6.25;;;4.43;;
65130;SDS011;51709;54.912;8.316;2023-11-21T10:58:34;11.35;;;5.18;;
65130;SDS011;51709;54.912;8.316;2023-11-21T11:03:56;6.57;;;4.43;;
65130;SDS011;51709;54.912;8.316;2023-11-21T11:09:18;7.63;;;4.65;;
65130;SDS011;51709;54.912;8.316;2023-11-21T11:14:40;6.90;;;4.55;;
65130;SDS011;51709;54.912;8.316;2023-11-21T11:20:01;6.70;;;4.32;;
65130;SDS011;51709;54.912;8.316;2023-11-21T11:31:11;6.50;;;4.35;;
65130;SDS011;51709;54.912;8.316;2023-11-21T11:36:49;7.40;;;4.47;;
65130;SDS011;51709;54.912;8.316;2023-11-21T11:42:25;6.07;;;4.20;;
65130;SDS011;51709;54.912;8.316;2023-11-21T11:47:47;7.05;;;4.57;;
65130;SDS011;51709;54.912;8.316;2023-11-21T11:53:12;6.50;;;3.75;;
65130;SDS011;51709;54.912;8.316;2023-11-21T11:58:37;6.88;;;4.43;;
65130;SDS011;51709;54.912;8.316;2023-11-21T12:09:31;7.25;;;4.28;;
65130;SDS011;51709;54.912;8.316;2023-11-21T12:14:52;6.57;;;4.68;;
65130;SDS011;51709;54.912;8.316;2023-11-21T12:20:13;9.15;;;4.95;;
65130;SDS011;51709;54.912;8.316;2023-11-21T12:25:40;8.32;;;5.43;;
65130;SDS011;51709;54.912;8.316;2023-11-21T12:31:02;8.30;;;5.05;;
65130;SDS011;51709;54.912;8.316;2023-11-21T12:36:34;7.78;;;4.32;;
65130;SDS011;51709;54.912;8.316;2023-11-21T12:41:55;8.02;;;4.85;;
65130;SDS011;51709;54.912;8.316;2023-11-21T12:47:19;8.38;;;4.88;;
65130;SDS011;51709;54.912;8.316;2023-11-21T12:52:43;10.43;;;4.50;;
65130;SDS011;51709;54.912;8.316;2023-11-21T12:58:08;8.32;;;5.70;;
65130;SDS011;51709;54.912;8.316;2023-11-21T13:03:32;8.70;;;5.32;;
65130;SDS011;51709;54.912;8.316;2023-11-21T13:08:54;8.63;;;5.25;;
65130;SDS011;51709;54.912;8.316;2023-11-21T13:14:17;8.48;;;5.43;;
65130;SDS011;51709;54.912;8.316;2023-11-21T13:19:38;7.18;;;4.68;;
65130;SDS011;51709;54.912;8.316;2023-11-21T13:24:58;9.55;;;5.60;;
65130;SDS011;51709;54.912;8.316;2023-11-21T13:30:19;7.35;;;5.15;;
65130;SDS011;51709;54.912;8.316;2023-11-21T13:35:46;15.23;;;6.40;;
65130;SDS011;51709;54.912;8.316;2023-11-21T13:41:12;11.88;;;5.47;;
65130;SDS011;51709;54.912;8.316;2023-11-21T13:46:34;10.40;;;6.32;;
65130;SDS011;51709;54.912;8.316;2023-11-21T13:51:58;8.00;;;5.57;;
65130;SDS011;51709;54.912;8.316;2023-11-21T13:57:21;11.23;;;5.43;;
65130;SDS011;51709;54.912;8.316;2023-11-21T14:02:41;8.50;;;6.03;;
65130;SDS011;51709;54.912;8.316;2023-11-21T14:08:04;9.73;;;5.50;;
65130;SDS011;51709;54.912;8.316;2023-11-21T14:13:26;8.27;;;5.78;;
65130;SDS011;51709;54.912;8.316;2023-11-21T14:18:47;10.77;;;6.18;;
65130;SDS011;51709;54.912;8.316;2023-11-21T14:24:16;10.48;;;6.20;;
65130;SDS011;51709;54.912;8.316;2023-11-21T14:29:40;8.55;;;6.45;;
65130;SDS011;51709;54.912;8.316;2023-11-21T14:35:05;11.85;;;6.57;;
65130;SDS011;51709;54.912;8.316;2023-11-21T14:40:28;10.10;;;5.85;;
65130;SDS011;51709;54.912;8.316;2023-11-21T14:45:53;10.18;;;5.63;;
65130;SDS011;51709;54.912;8.316;2023-11-21T14:51:16;8.40;;;5.80;;
65130;SDS011;51709;54.912;8.316;2023-11-21T14:56:47;10.77;;;6.25;;
65130;SDS011;51709;54.912;8.316;2023-11-21T15:02:08;9.40;;;6.10;;
65130;SDS011;51709;54.912;8.316;2023-11-21T15:07:35;9.35;;;6.28;;
65130;SDS011;51709;54.912;8.316;2023-11-21T15:12:56;12.27;;;6.47;;
65130;SDS011;51709;54.912;8.316;2023-11-21T15:18:18;12.90;;;6.18;;
65130;SDS011;51709;54.912;8.316;2023-11-21T15:23:39;7.78;;;5.28;;
65130;SDS011;51709;54.912;8.316;2023-11-21T15:29:01;8.40;;;5.32;;
65130;SDS011;51709;54.912;8.316;2023-11-21T15:34:22;10.20;;;5.38;;
65130;SDS011;51709;54.912;8.316;2023-11-21T15:39:43;9.88;;;6.00;;
65130;SDS011;51709;54.912;8.316;2023-11-21T15:45:03;7.57;;;5.65;;
65130;SDS011;51709;54.912;8.316;2023-11-21T15:50:27;9.23;;;5.97;;
65130;SDS011;51709;54.912;8.316;2023-11-21T15:55:48;8.55;;;5.78;;
65130;SDS011;51709;54.912;8.316;2023-11-21T16:01:09;10.00;;;5.40;;
65130;SDS011;51709;54.912;8.316;2023-11-21T16:06:30;9.60;;;5.72;;
65130;SDS011;51709;54.912;8.316;2023-11-21T16:11:51;7.93;;;5.28;;
65130;SDS011;51709;54.912;8.316;2023-11-21T16:17:13;7.90;;;5.40;;
65130;SDS011;51709;54.912;8.316;2023-11-21T16:22:35;6.78;;;4.95;;
65130;SDS011;51709;54.912;8.316;2023-11-21T16:27:55;10.35;;;5.35;;
65130;SDS011;51709;54.912;8.316;2023-11-21T16:33:18;7.88;;;4.50;;
65130;SDS011;51709;54.912;8.316;2023-11-21T16:38:39;7.63;;;4.97;;
65130;SDS011;51709;54.912;8.316;2023-11-21T16:44:01;11.55;;;4.78;;
65130;SDS011;51709;54.912;8.316;2023-11-21T16:49:23;7.35;;;4.38;;
65130;SDS011;51709;54.912;8.316;2023-11-21T16:54:44;7.68;;;4.28;;
65130;SDS011;51709;54.912;8.316;2023-11-21T17:00:04;9.98;;;5.18;;
65130;SDS011;51709;54.912;8.316;2023-11-21T17:05:32;7.35;;;4.60;;
65130;SDS011;51709;54.912;8.316;2023-11-21T17:10:52;10.90;;;5.35;;
65130;SDS011;51709;54.912;8.316;2023-11-21T17:16:13;6.97;;;4.15;;
65130;SDS011;51709;54.912;8.316;2023-11-21T17:21:34;13.07;;;5.40;;
65130;SDS011;51709;54.912;8.316;2023-11-21T17:26:55;7.93;;;4.95;;
65130;SDS011;51709;54.912;8.316;2023-11-21T17:32:15;6.90;;;4.60;;
65130;SDS011;51709;54.912;8.316;2023-11-21T17:37:39;4.83;;;3.20;;
65130;SDS011;51709;54.912;8.316;2023-11-21T17:42:59;9.07;;;4.95;;
65130;SDS011;51709;54.912;8.316;2023-11-21T17:48:20;9.73;;;4.93;;
65130;SDS011;51709;54.912;8.316;2023-11-21T17:53:42;7.20;;;4.75;;
65130;SDS011;51709;54.912;8.316;2023-11-21T17:59:03;5.25;;;3.67;;
65130;SDS011;51709;54.912;8.316;2023-11-21T18:04:25;8.27;;;5.40;;
65130;SDS011;51709;54.912;8.316;2023-11-21T18:09:46;7.72;;;5.22;;
65130;SDS011;51709;54.912;8.316;2023-11-21T18:15:07;6.35;;;4.70;;
65130;SDS011;51709;54.912;8.316;2023-11-21T18:20:29;7.80;;;4.72;;
65130;SDS011;51709;54.912;8.316;2023-11-21T18:25:50;7.90;;;4.40;;
65130;SDS011;51709;54.912;8.316;2023-11-21T18:31:11;4.93;;;4.20;;
65130;SDS011;51709;54.912;8.316;2023-11-21T18:36:32;7.88;;;4.00;;
65130;SDS011;51709;54.912;8.316;2023-11-21T18:41:53;5.13;;;3.47;;
65130;SDS011;51709;54.912;8.316;2023-11-21T18:47:15;12.32;;;4.80;;
65130;SDS011;51709;54.912;8.316;2023-11-21T18:52:36;5.90;;;4.22;;
65130;SDS011;51709;54.912;8.316;2023-11-21T18:57:57;8.27;;;4.35;;
65130;SDS011;51709;54.912;8.316;2023-11-21T19:03:17;6.38;;;3.53;;
65130;SDS011;51709;54.912;8.316;2023-11-21T19:08:40;6.57;;;3.30;;
65130;SDS011;51709;54.912;8.316;2023-11-21T19:14:01;8.07;;;4.68;;
65130;SDS011;51709;54.912;8.316;2023-11-21T19:19:22;8.52;;;4.38;;
65130;SDS011;51709;54.912;8.316;2023-11-21T19:24:43;5.35;;;3.30;;
65130;SDS011;51709;54.912;8.316;2023-11-21T19:30:04;4.70;;;3.20;;
65130;SDS011;51709;54.912;8.316;2023-11-21T19:35:28;4.00;;;2.95;;
65130;SDS011;51709;54.912;8.316;2023-11-21T19:40:50;4.93;;;3.42;;
65130;SDS011;51709;54.912;8.316;2023-11-21T19:46:12;7.40;;;3.55;;
65130;SDS011;51709;54.912;8.316;2023-11-21T19:51:33;13.18;;;3.20;;
65130;SDS011;51709;54.912;8.316;2023-11-21T19:56:55;3.08;;;2.75;;
65130;SDS011;51709;54.912;8.316;2023-11-21T20:02:15;6.05;;;3.65;;
65130;SDS011;51709;54.912;8.316;2023-11-21T20:07:36;5.35;;;3.33;;
65130;SDS011;51709;54.912;8.316;2023-11-21T20:12:57;8.55;;;3.83;;
65130;SDS011;51709;54.912;8.316;2023-11-21T20:18:26;8.50;;;2.95;;
65130;SDS011;51709;54.912;8.316;2023-11-21T20:23:47;5.15;;;3.08;;
65130;SDS011;51709;54.912;8.316;2023-11-21T20:29:08;5.38;;;3.38;;
65130;SDS011;51709;54.912;8.316;2023-11-21T20:34:29;5.50;;;3.58;;
65130;SDS011;51709;54.912;8.316;2023-11-21T20:39:50;5.43;;;3.75;;
65130;SDS011;51709;54.912;8.316;2023-11-21T20:45:10;9.75;;;3.42;;
65130;SDS011;51709;54.912;8.316;2023-11-21T20:50:33;4.28;;;3.53;;
65130;SDS011;51709;54.912;8.316;2023-11-21T20:55:55;5.28;;;3.17;;
65130;SDS011;51709;54.912;8.316;2023-11-21T21:01:16;5.40;;;3.58;;
65130;SDS011;51709;54.912;8.316;2023-11-21T21:06:39;6.85;;;3.72;;
65130;SDS011;51709;54.912;8.316;2023-11-21T21:12:00;7.80;;;3.10;;
65130;SDS011;51709;54.912;8.316;2023-11-21T21:17:21;8.27;;;3.38;;
65130;SDS011;51709;54.912;8.316;2023-11-21T21:22:41;3.72;;;2.75;;
65130;SDS011;51709;54.912;8.316;2023-11-21T21:28:04;6.35;;;3.55;;
65130;SDS011;51709;54.912;8.316;2023-11-21T21:33:26;6.05;;;3.10;;
65130;SDS011;51709;54.912;8.316;2023-11-21T21:38:46;7.10;;;3.42;;
65130;SDS011;51709;54.912;8.316;2023-11-21T21:44:06;6.40;;;3.33;;
65130;SDS011;51709;54.912;8.316;2023-11-21T21:49:27;4.75;;;3.20;;
65130;SDS011;51709;54.912;8.316;2023-11-21T21:54:49;6.30;;;3.80;;
65130;SDS011;51709;54.912;8.316;2023-11-21T22:00:09;5.00;;;3.30;;
65130;SDS011;51709;54.912;8.316;2023-11-21T22:05:33;9.73;;;4.43;;
65130;SDS011;51709;54.912;8.316;2023-11-21T22:10:54;14.60;;;3.42;;
65130;SDS011;51709;54.912;8.316;2023-11-21T22:16:15;7.35;;;3.72;;
65130;SDS011;51709;54.912;8.316;2023-11-21T22:21:36;5.57;;;3.05;;
65130;SDS011;51709;54.912;8.316;2023-11-21T22:26:57;7.10;;;3.58;;
65130;SDS011;51709;54.912;8.316;2023-11-21T22:32:17;6.22;;;3.83;;
65130;SDS011;51709;54.912;8.316;2023-11-21T22:37:38;7.70;;;3.72;;
65130;SDS011;51709;54.912;8.316;2023-11-21T22:42:58;6.00;;;3.72;;
65130;SDS011;51709;54.912;8.316;2023-11-21T22:48:19;5.20;;;3.28;;
65130;SDS011;51709;54.912;8.316;2023-11-21T22:53:40;8.88;;;3.75;;
65130;SDS011;51709;54.912;8.316;2023-11-21T22:59:01;5.70;;;3.65;;
65130;SDS011;51709;54.912;8.316;2023-11-21T23:04:22;12.00;;;7.85;;
65130;SDS011;51709;54.912;8.316;2023-11-21T23:09:42;8.05;;;4.63;;
65130;SDS011;51709;54.912;8.316;2023-11-21T23:15:04;9.50;;;4.13;;
65130;SDS011;51709;54.912;8.316;2023-11-21T23:20:26;5.75;;;3.97;;
65130;SDS011;51709;54.912;8.316;2023-11-21T23:25:48;6.88;;;4.13;;
65130;SDS011;51709;54.912;8.316;2023-11-21T23:31:08;9.73;;;3.95;;
65130;SDS011;51709;54.912;8.316;2023-11-21T23:36:29;9.10;;;3.95;;
65130;SDS011;51709;54.912;8.316;2023-11-21T23:41:50;7.72;;;4.53;;
65130;SDS011;51709;54.912;8.316;2023-11-21T23:47:11;13.20;;;4.60;;
65130;SDS011;51709;54.912;8.316;2023-11-21T23:52:31;9.75;;;4.47;;
65130;SDS011;51709;54.912;8.316;2023-11-21T23:57:52;6.70;;;3.90;;
